RJSN

Niigata Airport

Airport
ICAO code
RJSN
IATA Code
KIJ
Summary
ICAO Region
APAC
ICAO Territory
Location

Niigata, Niigata Prefecture

Serving
Niigata
Elevation
29 ft
Coordinates
37° 57' 12" N , 139° 6' 49" E
KCC
Metar
Observation
RJSN 030700Z 33007KT 9999 FEW030 SCT040 BKN140 03/M04 Q1021
Station
Niigata Airport
Date/Time
2023-02-03 07:00:00
Wind direction
330°
Wind speed
07 kts
Lowest cloud amount
few clouds
Temperature
3°C
Dew point
-4°C
Humidity
60%
QNH
1021 hPa
Weather condition
n/a

Airport located 6.7 km northeast Niigata, Japan.

Climatology

Humid Sub-tropical climate (Köppen climate classification Cfa)

Runways

Designator Length Width Surface Rops
4/22 1311 46 ASP Yes/Yes
10/28 2499 46 ASP Yes/Yes

Airport map

Aerial View

SKYbrary Partners:

Safety knowledge contributed by: